Giorgos Dracopoulos — 9HA3377 — position and weather

sailwx.info

Track history (hours):
 
Tides and Currents Weather Stations Pressure Air Temp Water Temp Dewpoint Dewpoint Depression Visibility Wind Speed Wind Dir Waves Ship Positions

Giorgos Dracopoulos

Last reported at 2017-Nov-19 13:27 UTC. Time now 2017-Nov-19 13:54 UTC.
Position N 51°06' E 003°45'.

Length 199 m; draft 11.5 m.

Type: Cargo ship. MMSI: 229523000.

Date/timePositionNaut miles runAvg speedWind from/ knotsBaromVisibWave heightAir tempDewpointWater temp
2017-Nov-19 13:27N 51°06' E 003°45'0 0.0
2017-Nov-19 13:00N 51°06' E 003°45'0 0.0
2017-Nov-19 12:30N 51°06' E 003°45'0 0.0
2017-Nov-19 12:00N 51°06' E 003°45'0 0.0
2017-Nov-19 11:30N 51°06' E 003°45'0 0.0
2017-Nov-19 11:00N 51°06' E 003°45'0 0.0
2017-Nov-19 10:27N 51°06' E 003°45'0 0.0
2017-Nov-19 10:00N 51°06' E 003°45'0 0.0
2017-Nov-19 09:30N 51°06' E 003°45'0 0.0
2017-Nov-19 09:00N 51°06' E 003°45'0 0.0
2017-Nov-19 08:30N 51°06' E 003°45'0 0.0
2017-Nov-19 08:00N 51°06' E 003°45'0 0.0
2017-Nov-19 07:30N 51°06' E 003°45'0 0.0
2017-Nov-19 07:00N 51°06' E 003°45'0 0.0
2017-Nov-19 06:30N 51°06' E 003°45'1 2.7
2017-Nov-19 06:00N 51°07' E 003°45'2 4.6
2017-Nov-19 05:30N 51°09' E 003°47'3 5.0
2017-Nov-19 05:00N 51°11' E 003°48'2 4.3
2017-Nov-19 04:30N 51°13' E 003°48'2 4.4
2017-Nov-19 04:00N 51°15' E 003°50'2 4.2
2017-Nov-19 03:30N 51°17' E 003°50'2 4.4
2017-Nov-19 03:00N 51°20' E 003°49'0 0.5
2017-Nov-19 02:31N 51°20' E 003°49'0 0.8
2017-Nov-19 02:01N 51°20' E 003°49'1 1.2
2017-Nov-19 01:30N 51°21' E 003°49'4 7.9
2017-Nov-19 01:01N 51°23' E 003°43'5 9.1
2017-Nov-19 00:31N 51°26' E 003°39'510.3
2017-Nov-19 00:01N 51°25' E 003°31'612.1
2017-Nov-18 23:30N 51°24' E 003°21'611.1
2017-Nov-18 23:01N 51°24' E 003°12'510.0
2017-Nov-18 22:31N 51°24' E 003°04'5 9.4
2017-Nov-18 22:01N 51°25' E 002°57'510.1
2017-Nov-18 21:30N 51°25' E 002°49'5 8.5
2017-Nov-18 20:56N 51°23' E 002°42'2 4.8
2017-Nov-18 20:30N 51°23' E 002°38'2 4.5
2017-Nov-18 20:00N 51°24' E 002°35'0 0.1
2017-Nov-18 19:15N 51°24' E 002°35'0 0.0
2017-Nov-18 18:57N 51°24' E 002°35'0 0.1
2017-Nov-18 17:15N 51°24' E 002°35'0 0.1
2017-Nov-18 16:54N 51°24' E 002°35'0 0.3
2017-Nov-18 16:29N 51°24' E 002°35'0 0.3
2017-Nov-18 16:00N 51°24' E 002°35'1 2.7
2017-Nov-18 15:30N 51°23' E 002°34'4 9.0
2017-Nov-18 15:00N 51°22' E 002°27'612.1
2017-Nov-18 14:31N 51°19' E 002°18'611.8
2017-Nov-18 14:00N 51°16' E 002°10'611.9
2017-Nov-18 13:31N 51°13' E 002°02'612.7
2017-Nov-18 13:00N 51°09' E 001°54'713.5
2017-Nov-18 12:31N 51°05' E 001°46'714.0
2017-Nov-18 12:00N 50°60' E 001°38'815.1
2017-Nov-18 11:30N 50°54' E 001°30'4513.0
2017-Nov-18 08:00N 50°25' E 000°35'714.2
2017-Nov-18 07:30N 50°24' E 000°24'714.1
2017-Nov-18 07:00N 50°22' E 000°14'713.7
2017-Nov-18 06:31N 50°20' E 000°03'713.2
2017-Nov-18 06:00N 50°18' W 000°07'712.9
2017-Nov-18 05:30N 50°17' W 000°17'3211.2
2017-Nov-18 02:37N 50°08' W 001°05'1 9.5
2017-Nov-18 02:29N 50°08' W 001°07'4 9.5
2017-Nov-18 02:00N 50°07' W 001°14'5 9.1
2017-Nov-18 01:30N 50°06' W 001°21'5 9.2
2017-Nov-18 01:00N 50°04' W 001°28'5 9.1
2017-Nov-18 00:30N 50°03' W 001°35'5 9.2
2017-Nov-18 00:00N 50°02' W 001°42'5 9.5
2017-Nov-17 23:30N 50°01' W 001°49'510.4
2017-Nov-17 23:00N 49°60' W 001°57'611.2
2017-Nov-17 22:31N 49°58' W 002°05'2212.8
2017-Nov-17 20:49N 49°53' W 002°38'513.9
2017-Nov-17 20:27N 49°51' W 002°45'614.0
2017-Nov-17 20:00N 49°48' W 002°54'814.0
2017-Nov-17 19:25N 49°45' W 003°06'1913.9
2017-Nov-17 18:02N 49°38' W 003°33'013.9
2017-Nov-17 18:00N 49°38' W 003°34'13512.5
2017-Nov-17 07:14N 48°39' W 006°39'312.4
2017-Nov-17 06:58N 48°37' W 006°43'912.5
2017-Nov-17 06:15N 48°33' W 006°55'  
2017-Nov-13 22:25N 39°35' W 027°39'611.3
2017-Nov-13 21:55N 39°33' W 027°46'  
Track history (hours):
 
Tides and Currents Weather Stations Pressure Air Temp Water Temp Dewpoint Dewpoint Depression Visibility Wind Speed Wind Dir Waves Ship Positions

Giorgos Dracopoulos

Last reported at 2017-Nov-19 13:27 UTC. Time now 2017-Nov-19 13:54 UTC.
Position N 51°06' E 003°45'.

Length 199 m; draft 11.5 m.

Type: Cargo ship. MMSI: 229523000.

Date/timePositionNaut miles runAvg speedWind from/ knotsBaromVisibWave heightAir tempDewpointWater temp
2017-Nov-19 13:27N 51°06' E 003°45'0 0.0
2017-Nov-19 13:00N 51°06' E 003°45'0 0.0
2017-Nov-19 12:30N 51°06' E 003°45'0 0.0
2017-Nov-19 12:00N 51°06' E 003°45'0 0.0
2017-Nov-19 11:30N 51°06' E 003°45'0 0.0
2017-Nov-19 11:00N 51°06' E 003°45'0 0.0
2017-Nov-19 10:27N 51°06' E 003°45'0 0.0
2017-Nov-19 10:00N 51°06' E 003°45'0 0.0
2017-Nov-19 09:30N 51°06' E 003°45'0 0.0
2017-Nov-19 09:00N 51°06' E 003°45'0 0.0
2017-Nov-19 08:30N 51°06' E 003°45'0 0.0
2017-Nov-19 08:00N 51°06' E 003°45'0 0.0
2017-Nov-19 07:30N 51°06' E 003°45'0 0.0
2017-Nov-19 07:00N 51°06' E 003°45'0 0.0
2017-Nov-19 06:30N 51°06' E 003°45'1 2.7
2017-Nov-19 06:00N 51°07' E 003°45'2 4.6
2017-Nov-19 05:30N 51°09' E 003°47'3 5.0
2017-Nov-19 05:00N 51°11' E 003°48'2 4.3
2017-Nov-19 04:30N 51°13' E 003°48'2 4.4
2017-Nov-19 04:00N 51°15' E 003°50'2 4.2
2017-Nov-19 03:30N 51°17' E 003°50'2 4.4
2017-Nov-19 03:00N 51°20' E 003°49'0 0.5
2017-Nov-19 02:31N 51°20' E 003°49'0 0.8
2017-Nov-19 02:01N 51°20' E 003°49'1 1.2
2017-Nov-19 01:30N 51°21' E 003°49'4 7.9
2017-Nov-19 01:01N 51°23' E 003°43'5 9.1
2017-Nov-19 00:31N 51°26' E 003°39'510.3
2017-Nov-19 00:01N 51°25' E 003°31'612.1
2017-Nov-18 23:30N 51°24' E 003°21'611.1
2017-Nov-18 23:01N 51°24' E 003°12'510.0
2017-Nov-18 22:31N 51°24' E 003°04'5 9.4
2017-Nov-18 22:01N 51°25' E 002°57'510.1
2017-Nov-18 21:30N 51°25' E 002°49'5 8.5
2017-Nov-18 20:56N 51°23' E 002°42'2 4.8
2017-Nov-18 20:30N 51°23' E 002°38'2 4.5
2017-Nov-18 20:00N 51°24' E 002°35'0 0.1
2017-Nov-18 19:15N 51°24' E 002°35'0 0.0
2017-Nov-18 18:57N 51°24' E 002°35'0 0.1
2017-Nov-18 17:15N 51°24' E 002°35'0 0.1
2017-Nov-18 16:54N 51°24' E 002°35'0 0.3
2017-Nov-18 16:29N 51°24' E 002°35'0 0.3
2017-Nov-18 16:00N 51°24' E 002°35'1 2.7
2017-Nov-18 15:30N 51°23' E 002°34'4 9.0
2017-Nov-18 15:00N 51°22' E 002°27'612.1
2017-Nov-18 14:31N 51°19' E 002°18'611.8
2017-Nov-18 14:00N 51°16' E 002°10'611.9
2017-Nov-18 13:31N 51°13' E 002°02'612.7
2017-Nov-18 13:00N 51°09' E 001°54'713.5
2017-Nov-18 12:31N 51°05' E 001°46'714.0
2017-Nov-18 12:00N 50°60' E 001°38'815.1
2017-Nov-18 11:30N 50°54' E 001°30'4513.0
2017-Nov-18 08:00N 50°25' E 000°35'714.2
2017-Nov-18 07:30N 50°24' E 000°24'714.1
2017-Nov-18 07:00N 50°22' E 000°14'713.7
2017-Nov-18 06:31N 50°20' E 000°03'713.2
2017-Nov-18 06:00N 50°18' W 000°07'712.9
2017-Nov-18 05:30N 50°17' W 000°17'3211.2
2017-Nov-18 02:37N 50°08' W 001°05'1 9.5
2017-Nov-18 02:29N 50°08' W 001°07'4 9.5
2017-Nov-18 02:00N 50°07' W 001°14'5 9.1
2017-Nov-18 01:30N 50°06' W 001°21'5 9.2
2017-Nov-18 01:00N 50°04' W 001°28'5 9.1
2017-Nov-18 00:30N 50°03' W 001°35'5 9.2
2017-Nov-18 00:00N 50°02' W 001°42'5 9.5
2017-Nov-17 23:30N 50°01' W 001°49'510.4
2017-Nov-17 23:00N 49°60' W 001°57'611.2
2017-Nov-17 22:31N 49°58' W 002°05'2212.8
2017-Nov-17 20:49N 49°53' W 002°38'513.9
2017-Nov-17 20:27N 49°51' W 002°45'614.0
2017-Nov-17 20:00N 49°48' W 002°54'814.0
2017-Nov-17 19:25N 49°45' W 003°06'1913.9
2017-Nov-17 18:02N 49°38' W 003°33'013.9
2017-Nov-17 18:00N 49°38' W 003°34'13512.5
2017-Nov-17 07:14N 48°39' W 006°39'312.4
2017-Nov-17 06:58N 48°37' W 006°43'912.5
2017-Nov-17 06:15N 48°33' W 006°55'  
2017-Nov-13 22:25N 39°35' W 027°39'611.3
2017-Nov-13 21:55N 39°33' W 027°46'  

Dump ship's entire track history